createdAt,value
2022-12-17T00:01:47.605Z,102083.28
2022-12-17T00:04:32.422Z,102089.34
2022-12-17T00:07:17.523Z,102092.84
2022-12-17T00:10:02.788Z,102087.56
2022-12-17T00:12:47.981Z,102060.44
2022-12-17T00:15:33.191Z,102065.34
2022-12-17T00:18:26.040Z,102098.53
2022-12-17T00:21:17.055Z,102063.41
2022-12-17T00:24:02.615Z,102101.88
2022-12-17T00:26:47.755Z,102084.50
2022-12-17T00:29:32.668Z,102099.25
2022-12-17T00:32:18.070Z,102081.66
2022-12-17T00:35:03.865Z,102089.56
2022-12-17T00:37:49.487Z,102097.56
2022-12-17T00:40:34.677Z,102082.91
2022-12-17T00:43:26.010Z,102090.81
2022-12-17T00:46:11.636Z,102081.34
2022-12-17T00:48:56.949Z,102086.91
2022-12-17T00:51:42.368Z,102065.72
2022-12-17T00:54:27.589Z,102088.72
2022-12-17T00:57:12.717Z,102050.56
2022-12-17T00:59:57.793Z,102045.97
2022-12-17T01:02:43.503Z,102066.09
2022-12-17T01:05:29.217Z,102083.84
2022-12-17T01:08:14.857Z,102058.91
2022-12-17T01:10:59.971Z,102085.31
2022-12-17T01:13:46.162Z,102094.03
2022-12-17T01:16:33.407Z,102097.31
2022-12-17T01:19:18.650Z,102063.97
2022-12-17T01:22:04.549Z,102096.44
2022-12-17T01:24:49.688Z,102091.19
2022-12-17T01:27:34.680Z,102085.22
2022-12-17T01:30:19.462Z,102078.56
2022-12-17T01:33:04.657Z,102074.97
2022-12-17T01:35:49.860Z,102081.91
2022-12-17T01:38:37.982Z,102085.41
2022-12-17T01:41:24.345Z,102098.41
2022-12-17T01:44:09.339Z,102082.78
2022-12-17T01:47:00.325Z,102092.59
2022-12-17T01:49:46.512Z,102092.44
2022-12-17T01:52:34.106Z,102096.13
2022-12-17T01:55:22.867Z,102108.94
2022-12-17T01:58:08.132Z,102106.31
2022-12-17T02:00:53.252Z,102114.91
2022-12-17T02:03:38.928Z,102095.78
2022-12-17T02:06:44.802Z,102107.19
2022-12-17T02:09:30.001Z,102107.88
2022-12-17T02:12:45.768Z,102106.13
2022-12-17T02:16:09.197Z,102110.25
2022-12-17T02:19:00.659Z,102111.03
2022-12-17T02:21:48.035Z,102085.66
2022-12-17T02:24:49.926Z,102093.44
2022-12-17T02:27:35.550Z,102109.28
2022-12-17T02:30:26.005Z,102116.28
2022-12-17T02:33:12.080Z,102121.56
2022-12-17T02:36:02.822Z,102113.16
2022-12-17T02:38:49.921Z,102114.91
2022-12-17T02:41:43.311Z,102109.81
2022-12-17T02:44:30.933Z,102110.53
2022-12-17T02:47:17.849Z,102109.81
2022-12-17T02:50:03.438Z,102061.59
2022-12-17T02:52:50.819Z,102081.19
2022-12-17T02:55:36.089Z,102089.97
2022-12-17T02:58:21.358Z,102110.88
2022-12-17T03:01:06.667Z,102107.28
2022-12-17T03:03:51.780Z,102076.97
2022-12-17T03:06:37.480Z,102093.16
2022-12-17T03:09:22.945Z,102084.38
2022-12-17T03:12:08.654Z,102091.59
2022-12-17T03:14:53.695Z,102090.72
2022-12-17T03:17:38.766Z,102068.75
2022-12-17T03:20:24.251Z,102092.47
2022-12-17T03:23:09.283Z,102095.09
2022-12-17T03:25:54.488Z,102098.78
2022-12-17T03:28:39.722Z,102087.75
2022-12-17T03:31:24.908Z,102086.16
2022-12-17T03:34:10.134Z,102085.28
2022-12-17T03:36:54.983Z,102081.78
2022-12-17T03:39:40.189Z,102083.53
2022-12-17T03:42:25.248Z,102056.41
2022-12-17T03:45:10.678Z,102074.22
2022-12-17T03:47:55.788Z,102067.19
2022-12-17T03:50:40.846Z,102051.47
2022-12-17T03:53:25.741Z,102067.31
2022-12-17T03:56:10.779Z,102054.03
2022-12-17T03:59:12.545Z,102060.47
2022-12-17T04:01:57.627Z,102070.81
2022-12-17T04:04:42.864Z,102064.91
2022-12-17T04:07:27.972Z,102066.88
2022-12-17T04:10:12.880Z,102073.88
2022-12-17T04:12:57.810Z,102063.53
2022-12-17T04:15:42.672Z,102040.88
2022-12-17T04:18:28.047Z,102034.47
2022-12-17T04:21:12.877Z,102061.06
2022-12-17T04:23:57.692Z,102055.78
2022-12-17T04:26:42.755Z,102059.84
2022-12-17T04:29:28.119Z,102056.84
2022-12-17T04:32:13.315Z,102059.31
2022-12-17T04:34:58.445Z,102035.03
2022-12-17T04:37:43.841Z,102053.44
2022-12-17T04:40:29.887Z,102055.97
2022-12-17T04:43:15.398Z,102051.59
2022-12-17T04:46:00.723Z,102053.44
2022-12-17T04:48:45.856Z,102054.38
2022-12-17T04:51:31.075Z,102061.16
2022-12-17T04:54:16.095Z,102057.66
2022-12-17T04:57:00.879Z,102068.97
2022-12-17T04:59:45.970Z,102072.63
2022-12-17T05:02:31.281Z,102050.00
2022-12-17T05:05:16.456Z,102068.34
2022-12-17T05:08:01.771Z,102072.63
2022-12-17T05:10:47.101Z,102065.63
2022-12-17T05:13:32.443Z,102040.72
2022-12-17T05:16:17.641Z,102069.50
2022-12-17T05:19:03.058Z,102074.75
2022-12-17T05:21:48.346Z,102050.09
2022-12-17T05:24:33.417Z,102080.38
2022-12-17T05:27:18.551Z,102042.88
2022-12-17T05:30:03.968Z,102076.16
2022-12-17T05:32:48.725Z,102068.84
2022-12-17T05:35:34.125Z,102078.44
2022-12-17T05:38:22.510Z,102043.41
2022-12-17T05:41:07.550Z,102075.91
2022-12-17T05:43:57.123Z,102060.84
2022-12-17T05:46:42.113Z,102071.31
2022-12-17T05:49:27.255Z,102070.34
2022-12-17T05:52:12.482Z,102087.91
2022-12-17T05:54:57.593Z,102084.69
2022-12-17T05:57:42.684Z,102087.38
2022-12-17T06:00:31.275Z,102082.13
2022-12-17T06:03:22.139Z,102092.84
2022-12-17T06:06:14.972Z,102064.56
2022-12-17T06:09:02.073Z,102065.34
2022-12-17T06:11:47.123Z,102064.03
2022-12-17T06:14:32.249Z,102092.13
2022-12-17T06:17:17.110Z,102099.50
2022-12-17T06:20:02.174Z,102087.22
2022-12-17T06:22:47.137Z,102078.28
2022-12-17T06:25:32.544Z,102085.47
2022-12-17T06:28:19.698Z,102087.38
2022-12-17T06:31:11.848Z,102121.19
2022-12-17T06:33:56.970Z,102068.78
2022-12-17T06:36:43.791Z,102095.97
2022-12-17T06:39:28.900Z,102108.28
2022-12-17T06:42:14.148Z,102106.88
2022-12-17T06:45:01.264Z,102106.88
2022-12-17T06:47:46.232Z,102109.50
2022-12-17T06:50:31.163Z,102095.53
2022-12-17T06:53:21.701Z,102114.78
2022-12-17T06:56:07.120Z,102089.50
2022-12-17T06:58:53.594Z,102107.59
2022-12-17T07:01:39.034Z,102122.50
2022-12-17T07:04:24.674Z,102118.22
2022-12-17T07:07:09.885Z,102117.25
2022-12-17T07:09:54.942Z,102105.94
2022-12-17T07:12:42.058Z,102111.72
2022-12-17T07:15:27.781Z,102099.88
2022-12-17T07:18:14.454Z,102096.53
2022-12-17T07:20:59.798Z,102109.00
2022-12-17T07:23:44.976Z,102109.78
2022-12-17T07:26:30.179Z,102101.63
2022-12-17T07:29:15.240Z,102120.75
2022-12-17T07:32:00.610Z,102120.16
2022-12-17T07:34:46.261Z,102131.09
2022-12-17T07:37:31.039Z,102115.31
2022-12-17T07:40:15.872Z,102124.19
2022-12-17T07:43:00.878Z,102087.22
2022-12-17T07:45:45.827Z,102132.00
2022-12-17T07:48:33.606Z,102131.31
2022-12-17T07:51:32.409Z,102132.88
2022-12-17T07:54:17.455Z,102126.22
2022-12-17T07:57:02.438Z,102102.41
2022-12-17T07:59:47.641Z,102138.31
2022-12-17T08:02:46.716Z,102127.81
2022-12-17T08:05:31.804Z,102144.56
2022-12-17T08:08:16.830Z,102124.25
2022-12-17T08:11:02.396Z,102149.22
2022-12-17T08:13:47.381Z,102128.91
2022-12-17T08:16:32.252Z,102138.16
2022-12-17T08:19:17.490Z,102147.00
2022-12-17T08:22:02.280Z,102132.91
2022-12-17T08:24:47.506Z,102153.25
2022-12-17T08:27:32.535Z,102156.75
2022-12-17T08:30:17.657Z,102152.53
2022-12-17T08:33:02.368Z,102129.03
2022-12-17T08:35:47.231Z,102129.03
2022-12-17T08:38:32.032Z,102150.28
2022-12-17T08:41:19.388Z,102160.63
2022-12-17T08:44:04.499Z,102137.78
2022-12-17T08:46:50.053Z,102157.13
2022-12-17T08:49:35.235Z,102143.44
2022-12-17T08:52:20.334Z,102162.91
2022-12-17T08:55:05.156Z,102150.88
2022-12-17T08:57:50.338Z,102155.44
2022-12-17T09:00:35.602Z,102132.78
2022-12-17T09:03:21.639Z,102156.75
2022-12-17T09:06:06.688Z,102173.72
2022-12-17T09:08:51.648Z,102172.53
2022-12-17T09:11:36.684Z,102139.66
2022-12-17T09:14:21.690Z,102154.75
2022-12-17T09:17:07.284Z,102167.59
2022-12-17T09:19:52.546Z,102178.75
2022-12-17T09:22:37.734Z,102149.25
2022-12-17T09:25:22.990Z,102137.94
2022-12-17T09:28:07.785Z,102146.88
2022-12-17T09:30:53.197Z,102144.75
2022-12-17T09:33:38.741Z,102168.13
2022-12-17T09:36:35.617Z,102165.91
2022-12-17T09:39:20.996Z,102160.25
2022-12-17T09:42:51.692Z,102187.88
2022-12-17T09:45:57.462Z,102177.44
2022-12-17T09:48:57.077Z,102183.22
2022-12-17T09:51:45.280Z,102184.66
2022-12-17T09:54:41.347Z,102158.06
2022-12-17T09:57:33.032Z,102183.97
2022-12-17T10:00:18.451Z,102180.91
2022-12-17T10:03:03.963Z,102192.81
2022-12-17T10:05:51.124Z,102182.06
2022-12-17T10:08:39.807Z,102194.91
2022-12-17T10:11:46.198Z,102196.44
2022-12-17T10:14:37.907Z,102206.44
2022-12-17T10:17:23.908Z,102171.94
2022-12-17T10:20:13.266Z,102198.03
2022-12-17T10:23:05.545Z,102197.72
2022-12-17T10:25:50.842Z,102192.88
2022-12-17T10:28:38.912Z,102199.59
2022-12-17T10:31:37.400Z,102193.88
2022-12-17T10:34:39.073Z,102197.91
2022-12-17T10:37:33.121Z,102174.84
2022-12-17T10:40:20.514Z,102198.03
2022-12-17T10:43:05.839Z,102199.53
2022-12-17T10:45:53.718Z,102200.06
2022-12-17T10:48:43.874Z,102204.72
2022-12-17T10:51:40.137Z,102198.91
2022-12-17T10:54:49.007Z,102188.03
2022-12-17T10:57:52.168Z,102203.03
2022-12-17T11:00:50.837Z,102186.22
2022-12-17T11:03:52.138Z,102184.16
2022-12-17T11:06:52.945Z,102188.69
2022-12-17T11:09:50.424Z,102188.34
2022-12-17T11:12:37.872Z,102150.31
2022-12-17T11:15:34.831Z,102167.22
2022-12-17T11:18:21.011Z,102146.81
2022-12-17T11:21:23.356Z,102147.22
2022-12-17T11:24:11.148Z,102172.16
2022-12-17T11:26:58.232Z,102183.88
2022-12-17T11:29:43.606Z,102186.81
2022-12-17T11:32:40.894Z,102186.38
2022-12-17T11:35:55.398Z,102179.91
2022-12-17T11:38:51.608Z,102178.59
2022-12-17T11:41:48.314Z,102175.50
2022-12-17T11:44:59.524Z,102165.94
2022-12-17T11:48:01.640Z,102176.25
2022-12-17T11:50:55.951Z,102173.41
2022-12-17T11:54:00.352Z,102163.56
2022-12-17T11:56:51.455Z,102121.22
2022-12-17T12:00:07.769Z,102162.84
2022-12-17T12:03:10.391Z,102170.41
2022-12-17T12:06:13.968Z,102164.03
2022-12-17T12:09:08.124Z,102166.28
2022-12-17T12:12:22.935Z,102150.03
2022-12-17T12:15:21.336Z,102138.06
2022-12-17T12:18:12.655Z,102153.06
2022-12-17T12:21:03.989Z,102158.53
2022-12-17T12:24:14.035Z,102163.00
2022-12-17T12:27:42.340Z,102154.63
2022-12-17T12:30:36.612Z,102133.16
2022-12-17T12:33:43.625Z,102147.47
2022-12-17T12:36:30.949Z,102137.19
2022-12-17T12:39:18.313Z,102138.06
2022-12-17T12:42:20.899Z,102130.31
2022-12-17T12:45:18.519Z,102132.94
2022-12-17T12:48:21.985Z,102114.50
2022-12-17T12:51:19.390Z,102118.81
2022-12-17T12:54:15.335Z,102140.56
2022-12-17T12:57:00.740Z,102135.41
2022-12-17T12:59:51.940Z,102138.84
2022-12-17T13:02:42.881Z,102143.16
2022-12-17T13:05:34.875Z,102144.09
2022-12-17T13:08:18.687Z,102090.94
2022-12-17T13:10:46.254Z,102102.22
2022-12-17T13:13:28.058Z,102148.41
2022-12-17T13:15:59.777Z,102151.97
2022-12-17T13:18:40.756Z,102147.56
2022-12-17T13:21:16.506Z,102161.50
2022-12-17T13:23:43.615Z,102152.03
2022-12-17T13:26:17.645Z,102156.31
2022-12-17T13:29:00.651Z,102143.28
2022-12-17T13:31:31.372Z,102158.16
2022-12-17T13:34:04.573Z,102166.88
2022-12-17T13:36:54.903Z,102165.22
2022-12-17T13:39:53.243Z,102173.88
2022-12-17T13:42:30.060Z,102141.72
2022-12-17T13:44:57.925Z,102133.94
2022-12-17T13:47:34.399Z,102165.13
2022-12-17T13:50:32.836Z,102152.88
2022-12-17T13:52:51.393Z,102162.63
2022-12-17T13:55:21.617Z,102151.34
2022-12-17T13:57:50.217Z,102137.38
2022-12-17T14:00:24.627Z,102160.94
2022-12-17T14:02:52.242Z,102149.72
2022-12-17T14:05:23.048Z,102156.59
2022-12-17T14:07:49.554Z,102148.84
2022-12-17T14:10:18.534Z,102145.44
2022-12-17T14:12:45.702Z,102106.28
2022-12-17T14:15:32.045Z,102131.53
2022-12-17T14:17:59.270Z,102140.25
2022-12-17T14:20:32.223Z,102122.00
2022-12-17T14:23:07.852Z,102158.66
2022-12-17T14:25:39.845Z,102150.88
2022-12-17T14:28:32.902Z,102170.00
2022-12-17T14:31:26.631Z,102179.59
2022-12-17T14:34:08.031Z,102174.28
2022-12-17T14:36:38.184Z,102179.47
2022-12-17T14:39:26.451Z,102193.38
2022-12-17T14:42:14.595Z,102176.03
2022-12-17T14:44:50.907Z,102187.25
2022-12-17T14:47:32.350Z,102176.84
2022-12-17T14:50:14.053Z,102185.53
2022-12-17T14:52:43.727Z,102182.94
2022-12-17T14:55:22.650Z,102182.91
2022-12-17T14:57:53.330Z,102181.06
2022-12-17T15:00:21.155Z,102177.59
2022-12-17T15:02:54.414Z,102178.34
2022-12-17T15:05:21.171Z,102182.72
2022-12-17T15:07:47.991Z,102180.88
2022-12-17T15:10:19.311Z,102184.25
2022-12-17T15:12:46.512Z,102182.47
2022-12-17T15:15:16.506Z,102175.28
2022-12-17T15:17:43.731Z,102189.09
2022-12-17T15:20:17.673Z,102194.13
2022-12-17T15:22:44.627Z,102182.59
2022-12-17T15:25:15.395Z,102199.84
2022-12-17T15:27:42.227Z,102155.41
2022-12-17T15:30:13.972Z,102191.75
2022-12-17T15:32:40.506Z,102177.81
2022-12-17T15:35:07.600Z,102176.06
2022-12-17T15:37:34.307Z,102183.72
2022-12-17T15:40:00.837Z,102187.94
2022-12-17T15:42:45.835Z,102158.09
2022-12-17T15:45:12.488Z,102186.66
2022-12-17T15:47:38.994Z,102190.72
2022-12-17T15:50:06.165Z,102136.66
2022-12-17T15:52:32.683Z,102140.78
2022-12-17T15:54:59.209Z,102165.09
2022-12-17T15:57:25.694Z,102184.81
2022-12-17T15:59:52.579Z,102152.41
2022-12-17T16:02:19.225Z,102146.13
2022-12-17T16:04:45.825Z,102166.03
2022-12-17T16:07:12.309Z,102171.81
2022-12-17T16:09:38.916Z,102172.44
2022-12-17T16:12:05.597Z,102184.31
2022-12-17T16:14:32.076Z,102184.88
2022-12-17T16:16:58.626Z,102161.09
2022-12-17T16:19:25.110Z,102191.41
2022-12-17T16:21:51.631Z,102193.72
2022-12-17T16:24:18.700Z,102185.63
2022-12-17T16:26:45.279Z,102149.53
2022-12-17T16:29:11.915Z,102193.81
2022-12-17T16:31:38.419Z,102199.53
2022-12-17T16:34:12.927Z,102203.72
2022-12-17T16:36:39.469Z,102205.31
2022-12-17T16:39:06.135Z,102191.09
2022-12-17T16:41:33.383Z,102198.94
2022-12-17T16:44:01.004Z,102199.72
2022-12-17T16:46:31.043Z,102187.31
2022-12-17T16:48:59.747Z,102146.03
2022-12-17T16:51:29.336Z,102195.56
2022-12-17T16:53:56.792Z,102204.03
2022-12-17T16:56:27.473Z,102202.91
2022-12-17T16:58:56.697Z,102203.53
2022-12-17T17:01:25.714Z,102199.03
2022-12-17T17:03:52.634Z,102179.47
2022-12-17T17:06:20.205Z,102153.91
2022-12-17T17:08:47.226Z,102199.28
2022-12-17T17:11:17.897Z,102194.69
2022-12-17T17:13:44.963Z,102163.97
2022-12-17T17:16:12.182Z,102203.66
2022-12-17T17:18:39.307Z,102198.22
2022-12-17T17:21:27.997Z,102204.06
2022-12-17T17:23:58.241Z,102185.28
2022-12-17T17:26:25.976Z,102193.81
2022-12-17T17:28:52.562Z,102203.88
2022-12-17T17:31:19.573Z,102213.28
2022-12-17T17:33:48.647Z,102211.34
2022-12-17T17:36:27.596Z,102223.94
2022-12-17T17:38:55.689Z,102209.94
2022-12-17T17:41:24.120Z,102212.97
2022-12-17T17:44:01.419Z,102173.34
2022-12-17T17:46:29.782Z,102188.13
2022-12-17T17:48:58.867Z,102219.16
2022-12-17T17:52:07.266Z,102221.66
2022-12-17T17:54:17.256Z,102212.78
2022-12-17T17:56:44.051Z,102198.59
2022-12-17T17:59:13.404Z,102212.41
2022-12-17T18:01:43.667Z,102207.78
2022-12-17T18:04:12.875Z,102195.19
2022-12-17T18:06:57.425Z,102216.16
2022-12-17T18:09:28.404Z,102221.03
2022-12-17T18:11:54.890Z,102224.31
2022-12-17T18:14:21.352Z,102214.41
2022-12-17T18:16:48.628Z,102228.38
2022-12-17T18:19:23.215Z,102230.69
2022-12-17T18:21:50.051Z,102216.56
2022-12-17T18:24:19.624Z,102245.69
2022-12-17T18:26:46.874Z,102229.78
2022-12-17T18:29:18.570Z,102238.28
2022-12-17T18:31:51.397Z,102246.66
2022-12-17T18:34:20.759Z,102239.50
2022-12-17T18:36:47.324Z,102223.81
2022-12-17T18:39:16.696Z,102219.94
2022-12-17T18:42:02.885Z,102229.47
2022-12-17T18:44:31.762Z,102218.09
2022-12-17T18:46:59.099Z,102216.06
2022-12-17T18:49:26.612Z,102218.28
2022-12-17T18:51:54.365Z,102227.41
2022-12-17T18:54:26.288Z,102227.28
2022-12-17T18:57:02.366Z,102223.63
2022-12-17T18:59:30.989Z,102200.69
2022-12-17T19:01:58.430Z,102221.44
2022-12-17T19:04:26.472Z,102226.91
2022-12-17T19:06:53.957Z,102239.75
2022-12-17T19:09:35.565Z,102241.22
2022-12-17T19:12:04.089Z,102235.81
2022-12-17T19:14:30.557Z,102219.75
2022-12-17T19:16:57.975Z,102234.53
2022-12-17T19:19:25.396Z,102225.47
2022-12-17T19:21:54.912Z,102233.94
2022-12-17T19:24:22.248Z,102223.41
2022-12-17T19:26:49.718Z,102234.53
2022-12-17T19:29:18.384Z,102239.50
2022-12-17T19:31:45.723Z,102218.16
2022-12-17T19:34:14.492Z,102243.28
2022-12-17T19:36:42.102Z,102243.09
2022-12-17T19:39:12.505Z,102238.63
2022-12-17T19:41:38.996Z,102218.00
2022-12-17T19:44:07.675Z,102234.53
2022-12-17T19:46:36.146Z,102236.28
2022-12-17T19:49:03.876Z,102241.31
2022-12-17T19:51:32.024Z,102228.59
2022-12-17T19:54:01.944Z,102249.44
2022-12-17T19:56:34.785Z,102243.19
2022-12-17T19:59:04.866Z,102197.75
2022-12-17T20:01:33.294Z,102234.41
2022-12-17T20:04:00.804Z,102236.84
2022-12-17T20:06:30.274Z,102236.84
2022-12-17T20:08:58.794Z,102235.97
2022-12-17T20:11:35.739Z,102226.31
2022-12-17T20:14:05.675Z,102226.59
2022-12-17T20:16:35.335Z,102228.50
2022-12-17T20:19:03.610Z,102211.78
2022-12-17T20:21:30.181Z,102227.56
2022-12-17T20:23:56.689Z,102240.66
2022-12-17T20:26:23.603Z,102244.16
2022-12-17T20:28:50.110Z,102211.72
2022-12-17T20:31:18.019Z,102242.41
2022-12-17T20:33:44.576Z,102228.06
2022-12-17T20:36:14.306Z,102225.34
2022-12-17T20:38:42.026Z,102245.53
2022-12-17T20:41:14.351Z,102242.66
2022-12-17T20:43:41.207Z,102238.44
2022-12-17T20:46:11.633Z,102246.00
2022-12-17T20:48:40.644Z,102238.91
2022-12-17T20:51:14.305Z,102197.75
2022-12-17T20:53:42.366Z,102239.50
2022-12-17T20:56:14.849Z,102247.81
2022-12-17T20:58:42.760Z,102240.88
2022-12-17T21:01:15.503Z,102251.72
2022-12-17T21:03:42.712Z,102234.09
2022-12-17T21:06:14.675Z,102234.81
2022-12-17T21:08:47.853Z,102252.94
2022-12-17T21:11:17.979Z,102220.31
2022-12-17T21:13:45.256Z,102243.59
2022-12-17T21:16:15.049Z,102254.00
2022-12-17T21:18:42.233Z,102252.88
2022-12-17T21:21:12.093Z,102257.97
2022-12-17T21:23:39.622Z,102263.81
2022-12-17T21:26:13.045Z,102250.63
2022-12-17T21:28:42.460Z,102255.56
2022-12-17T21:31:21.065Z,102260.84
2022-12-17T21:33:49.096Z,102230.84
2022-12-17T21:36:18.044Z,102266.50
2022-12-17T21:38:44.701Z,102261.16
2022-12-17T21:41:14.050Z,102253.16
2022-12-17T21:43:41.306Z,102238.09
2022-12-17T21:46:08.998Z,102259.00
2022-12-17T21:48:41.684Z,102262.09
2022-12-17T21:51:11.853Z,102232.06
2022-12-17T21:53:42.263Z,102261.94
2022-12-17T21:56:15.210Z,102242.75
2022-12-17T21:58:43.950Z,102259.06
2022-12-17T22:01:25.473Z,102235.09
2022-12-17T22:03:54.558Z,102271.63
2022-12-17T22:06:28.343Z,102268.06
2022-12-17T22:09:06.927Z,102270.53
2022-12-17T22:11:43.330Z,102259.13
2022-12-17T22:14:18.777Z,102257.50
2022-12-17T22:16:48.835Z,102260.00
2022-12-17T22:19:18.084Z,102270.00
2022-12-17T22:21:48.284Z,102252.78
2022-12-17T22:24:17.124Z,102245.00
2022-12-17T22:26:44.222Z,102256.41
2022-12-17T22:29:10.816Z,102205.63
2022-12-17T22:31:56.586Z,102233.13
2022-12-17T22:35:26.619Z,102220.28
2022-12-17T22:40:35.298Z,102199.75
2022-12-17T22:44:28.538Z,102232.50
2022-12-17T22:44:41.788Z,102234.72
2022-12-17T22:45:48.916Z,102213.78
2022-12-17T22:48:16.009Z,102221.97
2022-12-17T22:50:48.463Z,102221.97
2022-12-17T22:53:32.825Z,102168.81
2022-12-17T22:56:13.392Z,102177.25
2022-12-17T22:58:42.774Z,102212.44
2022-12-17T23:01:09.254Z,102175.69
2022-12-17T23:03:36.129Z,102160.06
2022-12-17T23:06:14.821Z,102176.00
2022-12-17T23:08:41.893Z,102167.13
2022-12-17T23:11:12.265Z,102191.63
2022-12-17T23:13:39.946Z,102189.53
2022-12-17T23:16:07.574Z,102193.84
2022-12-17T23:18:34.187Z,102197.13
2022-12-17T23:21:12.594Z,102215.38
2022-12-17T23:23:39.939Z,102192.34
2022-12-17T23:26:13.291Z,102196.13
2022-12-17T23:28:40.470Z,102205.88
2022-12-17T23:31:18.766Z,102194.88
2022-12-17T23:33:45.906Z,102198.47
2022-12-17T23:36:15.711Z,102189.16
2022-12-17T23:38:43.201Z,102209.88
2022-12-17T23:41:17.076Z,102210.75
2022-12-17T23:43:43.618Z,102188.97
2022-12-17T23:46:11.073Z,102185.28
2022-12-17T23:48:45.008Z,102213.53
2022-12-17T23:51:13.382Z,102212.94
2022-12-17T23:53:40.363Z,102204.66
2022-12-17T23:56:14.837Z,102204.88
2022-12-17T23:58:43.212Z,102186.13
